sensor_id;sensor_type;location;lat;lon;timestamp;P1;durP1;ratioP1;P2;durP2;ratioP2
66585;SDS011;53444;45.822;16.092;2023-12-04T00:00:45;56.55;;;21.75;;
66585;SDS011;53444;45.822;16.092;2023-12-04T00:03:12;50.60;;;22.33;;
66585;SDS011;53444;45.822;16.092;2023-12-04T00:05:41;53.13;;;23.38;;
66585;SDS011;53444;45.822;16.092;2023-12-04T00:08:08;62.57;;;24.60;;
66585;SDS011;53444;45.822;16.092;2023-12-04T00:10:36;55.33;;;23.88;;
66585;SDS011;53444;45.822;16.092;2023-12-04T00:13:04;53.08;;;25.92;;
66585;SDS011;53444;45.822;16.092;2023-12-04T00:15:31;56.30;;;23.95;;
66585;SDS011;53444;45.822;16.092;2023-12-04T00:17:58;57.58;;;24.08;;
66585;SDS011;53444;45.822;16.092;2023-12-04T00:20:24;43.73;;;20.03;;
66585;SDS011;53444;45.822;16.092;2023-12-04T00:22:51;40.22;;;18.48;;
66585;SDS011;53444;45.822;16.092;2023-12-04T00:25:19;39.05;;;19.23;;
66585;SDS011;53444;45.822;16.092;2023-12-04T00:27:46;37.72;;;18.30;;
66585;SDS011;53444;45.822;16.092;2023-12-04T00:30:14;44.65;;;19.27;;
66585;SDS011;53444;45.822;16.092;2023-12-04T00:32:41;39.47;;;17.83;;
66585;SDS011;53444;45.822;16.092;2023-12-04T00:35:08;38.83;;;18.80;;
66585;SDS011;53444;45.822;16.092;2023-12-04T00:37:35;42.47;;;19.92;;
66585;SDS011;53444;45.822;16.092;2023-12-04T00:40:44;42.67;;;18.02;;
66585;SDS011;53444;45.822;16.092;2023-12-04T00:43:13;36.70;;;18.00;;
66585;SDS011;53444;45.822;16.092;2023-12-04T00:45:42;42.13;;;18.80;;
66585;SDS011;53444;45.822;16.092;2023-12-04T00:48:08;42.85;;;18.05;;
66585;SDS011;53444;45.822;16.092;2023-12-04T00:50:35;40.28;;;18.17;;
66585;SDS011;53444;45.822;16.092;2023-12-04T00:53:02;37.55;;;16.67;;
66585;SDS011;53444;45.822;16.092;2023-12-04T00:55:29;39.50;;;17.38;;
66585;SDS011;53444;45.822;16.092;2023-12-04T00:57:56;34.20;;;15.90;;
66585;SDS011;53444;45.822;16.092;2023-12-04T01:00:23;37.60;;;17.05;;
66585;SDS011;53444;45.822;16.092;2023-12-04T01:02:51;37.60;;;17.20;;
66585;SDS011;53444;45.822;16.092;2023-12-04T01:05:18;47.00;;;18.60;;
66585;SDS011;53444;45.822;16.092;2023-12-04T01:07:45;40.45;;;19.27;;
66585;SDS011;53444;45.822;16.092;2023-12-04T01:10:11;40.17;;;19.23;;
66585;SDS011;53444;45.822;16.092;2023-12-04T01:12:38;43.38;;;20.08;;
66585;SDS011;53444;45.822;16.092;2023-12-04T01:15:05;37.70;;;19.17;;
66585;SDS011;53444;45.822;16.092;2023-12-04T01:17:33;43.42;;;19.02;;
66585;SDS011;53444;45.822;16.092;2023-12-04T01:20:01;37.10;;;17.95;;
66585;SDS011;53444;45.822;16.092;2023-12-04T01:22:28;35.27;;;15.37;;
66585;SDS011;53444;45.822;16.092;2023-12-04T01:24:54;36.10;;;17.05;;
66585;SDS011;53444;45.822;16.092;2023-12-04T01:27:22;36.80;;;17.42;;
66585;SDS011;53444;45.822;16.092;2023-12-04T01:29:49;41.35;;;16.48;;
66585;SDS011;53444;45.822;16.092;2023-12-04T01:32:16;40.65;;;16.52;;
66585;SDS011;53444;45.822;16.092;2023-12-04T01:34:43;44.30;;;17.10;;
66585;SDS011;53444;45.822;16.092;2023-12-04T01:37:11;38.30;;;18.02;;
66585;SDS011;53444;45.822;16.092;2023-12-04T01:39:37;34.55;;;15.38;;
66585;SDS011;53444;45.822;16.092;2023-12-04T01:42:04;31.92;;;15.77;;
66585;SDS011;53444;45.822;16.092;2023-12-04T01:44:31;37.90;;;16.40;;
66585;SDS011;53444;45.822;16.092;2023-12-04T01:46:58;31.37;;;14.00;;
66585;SDS011;53444;45.822;16.092;2023-12-04T01:49:25;34.45;;;14.75;;
66585;SDS011;53444;45.822;16.092;2023-12-04T01:51:51;41.17;;;16.13;;
66585;SDS011;53444;45.822;16.092;2023-12-04T01:54:20;37.42;;;15.98;;
66585;SDS011;53444;45.822;16.092;2023-12-04T01:56:47;35.85;;;16.08;;
66585;SDS011;53444;45.822;16.092;2023-12-04T01:59:15;37.03;;;17.80;;
66585;SDS011;53444;45.822;16.092;2023-12-04T02:01:42;36.00;;;16.40;;
66585;SDS011;53444;45.822;16.092;2023-12-04T02:04:08;40.00;;;15.95;;
66585;SDS011;53444;45.822;16.092;2023-12-04T02:06:35;41.55;;;15.52;;
66585;SDS011;53444;45.822;16.092;2023-12-04T02:09:02;36.10;;;16.80;;
66585;SDS011;53444;45.822;16.092;2023-12-04T02:11:33;33.40;;;14.73;;
66585;SDS011;53444;45.822;16.092;2023-12-04T02:14:00;39.95;;;16.08;;
66585;SDS011;53444;45.822;16.092;2023-12-04T02:16:26;37.17;;;16.23;;
66585;SDS011;53444;45.822;16.092;2023-12-04T02:18:55;35.17;;;16.38;;
66585;SDS011;53444;45.822;16.092;2023-12-04T02:21:22;37.10;;;16.83;;
66585;SDS011;53444;45.822;16.092;2023-12-04T02:23:51;35.27;;;16.20;;
66585;SDS011;53444;45.822;16.092;2023-12-04T02:26:18;37.10;;;17.17;;
66585;SDS011;53444;45.822;16.092;2023-12-04T02:28:50;39.38;;;17.23;;
66585;SDS011;53444;45.822;16.092;2023-12-04T02:31:21;37.97;;;14.40;;
66585;SDS011;53444;45.822;16.092;2023-12-04T02:33:50;37.53;;;15.05;;
66585;SDS011;53444;45.822;16.092;2023-12-04T02:36:19;29.47;;;14.53;;
66585;SDS011;53444;45.822;16.092;2023-12-04T02:38:47;30.83;;;14.07;;
66585;SDS011;53444;45.822;16.092;2023-12-04T02:41:15;29.38;;;13.90;;
66585;SDS011;53444;45.822;16.092;2023-12-04T02:43:43;34.70;;;16.02;;
66585;SDS011;53444;45.822;16.092;2023-12-04T02:46:10;28.45;;;13.07;;
66585;SDS011;53444;45.822;16.092;2023-12-04T02:48:36;29.20;;;11.70;;
66585;SDS011;53444;45.822;16.092;2023-12-04T02:51:03;36.92;;;13.07;;
66585;SDS011;53444;45.822;16.092;2023-12-04T02:53:31;29.10;;;11.63;;
66585;SDS011;53444;45.822;16.092;2023-12-04T02:55:58;26.20;;;11.88;;
66585;SDS011;53444;45.822;16.092;2023-12-04T02:58:26;25.02;;;11.93;;
66585;SDS011;53444;45.822;16.092;2023-12-04T03:00:53;25.83;;;11.93;;
66585;SDS011;53444;45.822;16.092;2023-12-04T03:03:19;22.83;;;11.10;;
66585;SDS011;53444;45.822;16.092;2023-12-04T03:05:46;24.73;;;11.43;;
66585;SDS011;53444;45.822;16.092;2023-12-04T03:08:13;29.63;;;11.38;;
66585;SDS011;53444;45.822;16.092;2023-12-04T03:10:40;23.65;;;11.10;;
66585;SDS011;53444;45.822;16.092;2023-12-04T03:13:06;26.87;;;11.93;;
66585;SDS011;53444;45.822;16.092;2023-12-04T03:15:34;23.00;;;11.02;;
66585;SDS011;53444;45.822;16.092;2023-12-04T03:18:01;26.27;;;13.73;;
66585;SDS011;53444;45.822;16.092;2023-12-04T03:20:28;24.63;;;11.90;;
66585;SDS011;53444;45.822;16.092;2023-12-04T03:22:55;28.10;;;12.88;;
66585;SDS011;53444;45.822;16.092;2023-12-04T03:25:22;28.47;;;12.60;;
66585;SDS011;53444;45.822;16.092;2023-12-04T03:27:48;26.58;;;11.77;;
66585;SDS011;53444;45.822;16.092;2023-12-04T03:30:15;24.23;;;11.40;;
66585;SDS011;53444;45.822;16.092;2023-12-04T03:32:43;30.20;;;12.13;;
66585;SDS011;53444;45.822;16.092;2023-12-04T03:35:10;26.17;;;10.68;;
66585;SDS011;53444;45.822;16.092;2023-12-04T03:37:37;25.30;;;10.27;;
66585;SDS011;53444;45.822;16.092;2023-12-04T03:40:04;25.33;;;10.80;;
66585;SDS011;53444;45.822;16.092;2023-12-04T03:42:32;25.23;;;11.00;;
66585;SDS011;53444;45.822;16.092;2023-12-04T03:44:59;21.02;;;9.65;;
66585;SDS011;53444;45.822;16.092;2023-12-04T03:47:25;25.02;;;10.77;;
66585;SDS011;53444;45.822;16.092;2023-12-04T03:49:53;21.13;;;9.40;;
66585;SDS011;53444;45.822;16.092;2023-12-04T03:52:20;21.48;;;10.20;;
66585;SDS011;53444;45.822;16.092;2023-12-04T03:54:47;24.23;;;10.18;;
66585;SDS011;53444;45.822;16.092;2023-12-04T03:57:14;20.65;;;8.65;;
66585;SDS011;53444;45.822;16.092;2023-12-04T03:59:40;34.67;;;13.88;;
66585;SDS011;53444;45.822;16.092;2023-12-04T04:04:39;35.60;;;14.68;;
66585;SDS011;53444;45.822;16.092;2023-12-04T04:07:08;35.13;;;16.17;;
66585;SDS011;53444;45.822;16.092;2023-12-04T04:09:35;39.47;;;17.50;;
66585;SDS011;53444;45.822;16.092;2023-12-04T04:12:02;50.80;;;18.17;;
66585;SDS011;53444;45.822;16.092;2023-12-04T04:14:29;40.97;;;15.27;;
66585;SDS011;53444;45.822;16.092;2023-12-04T04:16:56;35.03;;;15.43;;
66585;SDS011;53444;45.822;16.092;2023-12-04T04:19:22;30.35;;;15.30;;
66585;SDS011;53444;45.822;16.092;2023-12-04T04:21:49;40.13;;;18.10;;
66585;SDS011;53444;45.822;16.092;2023-12-04T04:24:17;38.08;;;18.23;;
66585;SDS011;53444;45.822;16.092;2023-12-04T04:26:44;36.73;;;16.40;;
66585;SDS011;53444;45.822;16.092;2023-12-04T04:29:11;40.95;;;19.27;;
66585;SDS011;53444;45.822;16.092;2023-12-04T04:31:38;44.78;;;21.25;;
66585;SDS011;53444;45.822;16.092;2023-12-04T04:34:05;45.80;;;20.10;;
66585;SDS011;53444;45.822;16.092;2023-12-04T04:36:31;39.58;;;19.10;;
66585;SDS011;53444;45.822;16.092;2023-12-04T04:39:00;44.40;;;18.83;;
66585;SDS011;53444;45.822;16.092;2023-12-04T04:41:28;35.70;;;17.83;;
66585;SDS011;53444;45.822;16.092;2023-12-04T04:43:55;41.60;;;18.73;;
66585;SDS011;53444;45.822;16.092;2023-12-04T04:46:22;35.15;;;16.75;;
66585;SDS011;53444;45.822;16.092;2023-12-04T04:48:50;43.83;;;19.67;;
66585;SDS011;53444;45.822;16.092;2023-12-04T04:51:17;37.63;;;18.43;;
66585;SDS011;53444;45.822;16.092;2023-12-04T04:53:44;37.13;;;18.20;;
66585;SDS011;53444;45.822;16.092;2023-12-04T04:56:10;45.42;;;19.55;;
66585;SDS011;53444;45.822;16.092;2023-12-04T04:58:39;37.72;;;17.73;;
66585;SDS011;53444;45.822;16.092;2023-12-04T05:01:06;43.00;;;18.63;;
66585;SDS011;53444;45.822;16.092;2023-12-04T05:03:33;42.67;;;18.00;;
66585;SDS011;53444;45.822;16.092;2023-12-04T05:06:00;43.47;;;18.80;;
66585;SDS011;53444;45.822;16.092;2023-12-04T05:08:26;41.92;;;20.38;;
66585;SDS011;53444;45.822;16.092;2023-12-04T05:10:53;56.65;;;24.33;;
66585;SDS011;53444;45.822;16.092;2023-12-04T05:13:20;45.85;;;21.35;;
66585;SDS011;53444;45.822;16.092;2023-12-04T05:15:48;41.87;;;17.00;;
66585;SDS011;53444;45.822;16.092;2023-12-04T05:18:15;39.63;;;17.95;;
66585;SDS011;53444;45.822;16.092;2023-12-04T05:20:42;44.30;;;20.40;;
66585;SDS011;53444;45.822;16.092;2023-12-04T05:23:08;46.42;;;19.10;;
66585;SDS011;53444;45.822;16.092;2023-12-04T05:25:35;50.38;;;21.20;;
66585;SDS011;53444;45.822;16.092;2023-12-04T05:28:03;46.43;;;17.63;;
66585;SDS011;53444;45.822;16.092;2023-12-04T05:30:30;48.17;;;20.70;;
66585;SDS011;53444;45.822;16.092;2023-12-04T05:32:59;48.05;;;20.80;;
66585;SDS011;53444;45.822;16.092;2023-12-04T05:35:26;45.92;;;20.20;;
66585;SDS011;53444;45.822;16.092;2023-12-04T05:37:53;44.47;;;19.80;;
66585;SDS011;53444;45.822;16.092;2023-12-04T05:40:20;36.93;;;17.57;;
66585;SDS011;53444;45.822;16.092;2023-12-04T05:42:47;44.22;;;20.10;;
66585;SDS011;53444;45.822;16.092;2023-12-04T05:45:15;40.88;;;20.90;;
66585;SDS011;53444;45.822;16.092;2023-12-04T05:47:42;47.05;;;21.00;;
66585;SDS011;53444;45.822;16.092;2023-12-04T05:50:11;72.93;;;30.25;;
66585;SDS011;53444;45.822;16.092;2023-12-04T05:52:38;43.70;;;20.10;;
66585;SDS011;53444;45.822;16.092;2023-12-04T05:55:05;46.17;;;20.10;;
66585;SDS011;53444;45.822;16.092;2023-12-04T05:57:33;50.25;;;20.38;;
66585;SDS011;53444;45.822;16.092;2023-12-04T06:00:00;42.83;;;17.85;;
66585;SDS011;53444;45.822;16.092;2023-12-04T06:02:27;34.33;;;16.42;;
66585;SDS011;53444;45.822;16.092;2023-12-04T06:04:55;48.43;;;17.80;;
66585;SDS011;53444;45.822;16.092;2023-12-04T06:07:24;38.72;;;16.88;;
66585;SDS011;53444;45.822;16.092;2023-12-04T06:09:52;35.15;;;16.27;;
66585;SDS011;53444;45.822;16.092;2023-12-04T06:12:22;44.45;;;18.60;;
66585;SDS011;53444;45.822;16.092;2023-12-04T06:14:49;34.38;;;16.15;;
66585;SDS011;53444;45.822;16.092;2023-12-04T06:17:16;42.73;;;19.20;;
66585;SDS011;53444;45.822;16.092;2023-12-04T06:19:43;43.53;;;17.50;;
66585;SDS011;53444;45.822;16.092;2023-12-04T06:22:12;37.17;;;16.00;;
66585;SDS011;53444;45.822;16.092;2023-12-04T06:24:41;37.85;;;17.20;;
66585;SDS011;53444;45.822;16.092;2023-12-04T06:27:09;44.65;;;20.98;;
66585;SDS011;53444;45.822;16.092;2023-12-04T06:29:38;44.27;;;19.10;;
66585;SDS011;53444;45.822;16.092;2023-12-04T06:32:07;33.42;;;16.10;;
66585;SDS011;53444;45.822;16.092;2023-12-04T06:34:35;37.55;;;16.27;;
66585;SDS011;53444;45.822;16.092;2023-12-04T06:37:07;35.75;;;16.70;;
66585;SDS011;53444;45.822;16.092;2023-12-04T06:39:36;36.03;;;18.10;;
66585;SDS011;53444;45.822;16.092;2023-12-04T06:42:10;42.53;;;18.40;;
66585;SDS011;53444;45.822;16.092;2023-12-04T06:44:38;43.30;;;17.63;;
66585;SDS011;53444;45.822;16.092;2023-12-04T06:47:05;44.47;;;20.27;;
66585;SDS011;53444;45.822;16.092;2023-12-04T06:49:35;46.08;;;19.27;;
66585;SDS011;53444;45.822;16.092;2023-12-04T06:52:03;42.70;;;19.10;;
66585;SDS011;53444;45.822;16.092;2023-12-04T06:54:30;40.90;;;19.63;;
66585;SDS011;53444;45.822;16.092;2023-12-04T06:56:59;43.35;;;17.38;;
66585;SDS011;53444;45.822;16.092;2023-12-04T06:59:26;44.75;;;18.80;;
66585;SDS011;53444;45.822;16.092;2023-12-04T07:01:54;44.90;;;18.45;;
66585;SDS011;53444;45.822;16.092;2023-12-04T07:04:21;35.47;;;16.35;;
66585;SDS011;53444;45.822;16.092;2023-12-04T07:06:48;43.87;;;17.03;;
66585;SDS011;53444;45.822;16.092;2023-12-04T07:09:16;52.80;;;19.38;;
66585;SDS011;53444;45.822;16.092;2023-12-04T07:11:43;41.63;;;21.25;;
66585;SDS011;53444;45.822;16.092;2023-12-04T07:14:12;43.75;;;18.90;;
66585;SDS011;53444;45.822;16.092;2023-12-04T07:16:39;42.83;;;19.55;;
66585;SDS011;53444;45.822;16.092;2023-12-04T07:19:07;36.50;;;16.33;;
66585;SDS011;53444;45.822;16.092;2023-12-04T07:21:34;43.55;;;19.08;;
66585;SDS011;53444;45.822;16.092;2023-12-04T07:24:01;53.97;;;23.88;;
66585;SDS011;53444;45.822;16.092;2023-12-04T07:26:30;47.42;;;17.95;;
66585;SDS011;53444;45.822;16.092;2023-12-04T07:28:57;45.38;;;20.52;;
66585;SDS011;53444;45.822;16.092;2023-12-04T07:31:26;49.03;;;20.33;;
66585;SDS011;53444;45.822;16.092;2023-12-04T07:33:55;46.00;;;18.00;;
66585;SDS011;53444;45.822;16.092;2023-12-04T07:36:35;43.60;;;18.20;;
66585;SDS011;53444;45.822;16.092;2023-12-04T07:39:18;37.38;;;16.98;;
66585;SDS011;53444;45.822;16.092;2023-12-04T07:41:48;51.20;;;19.30;;
66585;SDS011;53444;45.822;16.092;2023-12-04T07:44:15;48.23;;;21.43;;
66585;SDS011;53444;45.822;16.092;2023-12-04T07:46:44;51.15;;;21.08;;
66585;SDS011;53444;45.822;16.092;2023-12-04T07:49:11;45.10;;;19.73;;
66585;SDS011;53444;45.822;16.092;2023-12-04T07:51:39;42.78;;;19.90;;
66585;SDS011;53444;45.822;16.092;2023-12-04T07:54:06;55.55;;;20.80;;
66585;SDS011;53444;45.822;16.092;2023-12-04T07:56:36;52.20;;;21.93;;
66585;SDS011;53444;45.822;16.092;2023-12-04T07:59:03;45.40;;;19.40;;
66585;SDS011;53444;45.822;16.092;2023-12-04T08:01:31;44.65;;;20.02;;
66585;SDS011;53444;45.822;16.092;2023-12-04T08:04:02;43.20;;;20.02;;
66585;SDS011;53444;45.822;16.092;2023-12-04T08:06:29;42.70;;;19.65;;
66585;SDS011;53444;45.822;16.092;2023-12-04T08:08:56;45.10;;;19.10;;
66585;SDS011;53444;45.822;16.092;2023-12-04T08:11:22;38.90;;;18.88;;
66585;SDS011;53444;45.822;16.092;2023-12-04T08:13:49;43.03;;;19.80;;
66585;SDS011;53444;45.822;16.092;2023-12-04T08:16:16;50.15;;;20.25;;
66585;SDS011;53444;45.822;16.092;2023-12-04T08:18:46;42.25;;;19.50;;
66585;SDS011;53444;45.822;16.092;2023-12-04T08:21:15;36.83;;;18.60;;
66585;SDS011;53444;45.822;16.092;2023-12-04T08:23:42;43.63;;;20.02;;
66585;SDS011;53444;45.822;16.092;2023-12-04T08:26:08;56.78;;;25.98;;
66585;SDS011;53444;45.822;16.092;2023-12-04T08:28:35;51.72;;;22.50;;
66585;SDS011;53444;45.822;16.092;2023-12-04T08:31:03;44.60;;;21.42;;
66585;SDS011;53444;45.822;16.092;2023-12-04T08:33:30;50.43;;;22.23;;
66585;SDS011;53444;45.822;16.092;2023-12-04T08:35:56;44.63;;;20.55;;
66585;SDS011;53444;45.822;16.092;2023-12-04T08:38:25;40.15;;;20.73;;
66585;SDS011;53444;45.822;16.092;2023-12-04T08:40:52;45.08;;;20.85;;
66585;SDS011;53444;45.822;16.092;2023-12-04T08:43:20;41.92;;;20.08;;
66585;SDS011;53444;45.822;16.092;2023-12-04T08:45:46;43.10;;;18.00;;
66585;SDS011;53444;45.822;16.092;2023-12-04T08:48:13;38.22;;;16.88;;
66585;SDS011;53444;45.822;16.092;2023-12-04T08:50:40;35.90;;;15.75;;
66585;SDS011;53444;45.822;16.092;2023-12-04T08:53:07;33.72;;;15.30;;
66585;SDS011;53444;45.822;16.092;2023-12-04T08:55:35;41.47;;;19.20;;
66585;SDS011;53444;45.822;16.092;2023-12-04T08:58:02;45.60;;;19.93;;
66585;SDS011;53444;45.822;16.092;2023-12-04T09:00:29;36.53;;;17.70;;
66585;SDS011;53444;45.822;16.092;2023-12-04T09:02:56;36.80;;;17.05;;
66585;SDS011;53444;45.822;16.092;2023-12-04T09:05:22;43.58;;;19.30;;
66585;SDS011;53444;45.822;16.092;2023-12-04T09:07:50;40.05;;;18.30;;
66585;SDS011;53444;45.822;16.092;2023-12-04T09:10:16;44.93;;;17.97;;
66585;SDS011;53444;45.822;16.092;2023-12-04T09:12:45;38.63;;;19.00;;
66585;SDS011;53444;45.822;16.092;2023-12-04T09:15:12;32.35;;;18.42;;
66585;SDS011;53444;45.822;16.092;2023-12-04T09:17:39;52.83;;;21.60;;
66585;SDS011;53444;45.822;16.092;2023-12-04T09:20:06;56.28;;;21.98;;
66585;SDS011;53444;45.822;16.092;2023-12-04T09:22:34;57.90;;;23.53;;
66585;SDS011;53444;45.822;16.092;2023-12-04T09:25:03;46.97;;;21.80;;
66585;SDS011;53444;45.822;16.092;2023-12-04T09:27:30;51.10;;;25.05;;
66585;SDS011;53444;45.822;16.092;2023-12-04T09:29:59;54.33;;;22.50;;
66585;SDS011;53444;45.822;16.092;2023-12-04T09:32:26;67.03;;;27.65;;
66585;SDS011;53444;45.822;16.092;2023-12-04T09:34:53;48.00;;;22.87;;
66585;SDS011;53444;45.822;16.092;2023-12-04T09:37:19;41.25;;;20.13;;
66585;SDS011;53444;45.822;16.092;2023-12-04T09:39:46;53.80;;;23.08;;
66585;SDS011;53444;45.822;16.092;2023-12-04T09:42:15;49.45;;;22.05;;
66585;SDS011;53444;45.822;16.092;2023-12-04T09:44:44;49.33;;;21.02;;
66585;SDS011;53444;45.822;16.092;2023-12-04T09:47:15;47.20;;;22.47;;
66585;SDS011;53444;45.822;16.092;2023-12-04T09:49:44;51.15;;;23.00;;
66585;SDS011;53444;45.822;16.092;2023-12-04T09:52:11;52.15;;;22.83;;
66585;SDS011;53444;45.822;16.092;2023-12-04T09:54:38;57.40;;;23.02;;
66585;SDS011;53444;45.822;16.092;2023-12-04T09:57:06;50.70;;;23.50;;
66585;SDS011;53444;45.822;16.092;2023-12-04T09:59:35;54.77;;;23.00;;
66585;SDS011;53444;45.822;16.092;2023-12-04T10:02:03;46.88;;;22.05;;
66585;SDS011;53444;45.822;16.092;2023-12-04T10:04:32;51.05;;;21.80;;
66585;SDS011;53444;45.822;16.092;2023-12-04T10:07:00;65.15;;;22.38;;
66585;SDS011;53444;45.822;16.092;2023-12-04T10:09:27;64.65;;;24.08;;
66585;SDS011;53444;45.822;16.092;2023-12-04T10:11:55;45.40;;;20.27;;
66585;SDS011;53444;45.822;16.092;2023-12-04T10:14:22;60.58;;;21.92;;
66585;SDS011;53444;45.822;16.092;2023-12-04T10:16:50;64.55;;;22.90;;
66585;SDS011;53444;45.822;16.092;2023-12-04T10:19:19;59.72;;;23.20;;
66585;SDS011;53444;45.822;16.092;2023-12-04T10:21:50;58.67;;;23.13;;
66585;SDS011;53444;45.822;16.092;2023-12-04T10:24:29;68.23;;;25.93;;
66585;SDS011;53444;45.822;16.092;2023-12-04T10:26:58;49.97;;;23.33;;
66585;SDS011;53444;45.822;16.092;2023-12-04T10:29:26;60.65;;;23.67;;
66585;SDS011;53444;45.822;16.092;2023-12-04T10:31:55;52.13;;;21.20;;
66585;SDS011;53444;45.822;16.092;2023-12-04T10:34:22;61.25;;;24.02;;
66585;SDS011;53444;45.822;16.092;2023-12-04T10:36:52;58.87;;;22.47;;
66585;SDS011;53444;45.822;16.092;2023-12-04T10:39:20;60.53;;;23.45;;
66585;SDS011;53444;45.822;16.092;2023-12-04T10:41:49;59.92;;;22.58;;
66585;SDS011;53444;45.822;16.092;2023-12-04T10:44:26;52.65;;;21.00;;
66585;SDS011;53444;45.822;16.092;2023-12-04T10:46:54;61.00;;;25.42;;
66585;SDS011;53444;45.822;16.092;2023-12-04T10:49:25;56.43;;;22.63;;
66585;SDS011;53444;45.822;16.092;2023-12-04T10:51:55;63.55;;;26.02;;
66585;SDS011;53444;45.822;16.092;2023-12-04T10:54:22;68.63;;;24.73;;
66585;SDS011;53444;45.822;16.092;2023-12-04T10:56:50;78.05;;;26.73;;
66585;SDS011;53444;45.822;16.092;2023-12-04T10:59:21;72.07;;;26.65;;
66585;SDS011;53444;45.822;16.092;2023-12-04T11:01:52;63.70;;;24.07;;
66585;SDS011;53444;45.822;16.092;2023-12-04T11:04:22;55.17;;;22.77;;
66585;SDS011;53444;45.822;16.092;2023-12-04T11:06:52;60.00;;;25.42;;
66585;SDS011;53444;45.822;16.092;2023-12-04T11:09:22;59.25;;;24.40;;
66585;SDS011;53444;45.822;16.092;2023-12-04T11:11:53;60.53;;;23.10;;
66585;SDS011;53444;45.822;16.092;2023-12-04T11:14:23;59.43;;;23.37;;
66585;SDS011;53444;45.822;16.092;2023-12-04T11:16:57;65.03;;;24.25;;
66585;SDS011;53444;45.822;16.092;2023-12-04T11:19:32;57.85;;;23.50;;
66585;SDS011;53444;45.822;16.092;2023-12-04T11:22:03;56.50;;;22.95;;
66585;SDS011;53444;45.822;16.092;2023-12-04T11:24:34;54.75;;;22.95;;
66585;SDS011;53444;45.822;16.092;2023-12-04T11:27:02;49.57;;;19.93;;
66585;SDS011;53444;45.822;16.092;2023-12-04T11:29:29;45.55;;;20.35;;
66585;SDS011;53444;45.822;16.092;2023-12-04T11:31:58;56.65;;;25.20;;
66585;SDS011;53444;45.822;16.092;2023-12-04T11:34:25;56.33;;;23.85;;
66585;SDS011;53444;45.822;16.092;2023-12-04T11:36:51;60.35;;;23.85;;
66585;SDS011;53444;45.822;16.092;2023-12-04T11:39:21;59.37;;;24.50;;
66585;SDS011;53444;45.822;16.092;2023-12-04T11:41:50;55.83;;;23.95;;
66585;SDS011;53444;45.822;16.092;2023-12-04T11:44:17;57.80;;;23.88;;
66585;SDS011;53444;45.822;16.092;2023-12-04T11:46:55;48.30;;;20.67;;
66585;SDS011;53444;45.822;16.092;2023-12-04T11:49:26;46.10;;;21.23;;
66585;SDS011;53444;45.822;16.092;2023-12-04T11:51:53;46.50;;;19.40;;
66585;SDS011;53444;45.822;16.092;2023-12-04T11:54:20;45.10;;;18.42;;
66585;SDS011;53444;45.822;16.092;2023-12-04T11:57:19;47.50;;;22.25;;
66585;SDS011;53444;45.822;16.092;2023-12-04T11:59:47;45.28;;;19.85;;
66585;SDS011;53444;45.822;16.092;2023-12-04T12:02:14;51.05;;;22.17;;
66585;SDS011;53444;45.822;16.092;2023-12-04T12:04:41;51.90;;;22.03;;
66585;SDS011;53444;45.822;16.092;2023-12-04T12:07:10;54.58;;;24.25;;
66585;SDS011;53444;45.822;16.092;2023-12-04T12:09:37;48.58;;;19.38;;
66585;SDS011;53444;45.822;16.092;2023-12-04T12:12:06;40.55;;;19.02;;
66585;SDS011;53444;45.822;16.092;2023-12-04T12:14:34;37.85;;;19.05;;
66585;SDS011;53444;45.822;16.092;2023-12-04T12:17:01;36.10;;;17.70;;
66585;SDS011;53444;45.822;16.092;2023-12-04T12:19:28;47.08;;;17.95;;
66585;SDS011;53444;45.822;16.092;2023-12-04T12:21:54;35.85;;;15.65;;
66585;SDS011;53444;45.822;16.092;2023-12-04T12:24:23;28.65;;;13.68;;
66585;SDS011;53444;45.822;16.092;2023-12-04T12:26:50;24.80;;;12.15;;
66585;SDS011;53444;45.822;16.092;2023-12-04T12:29:18;26.40;;;11.73;;
66585;SDS011;53444;45.822;16.092;2023-12-04T12:31:45;26.33;;;12.07;;
66585;SDS011;53444;45.822;16.092;2023-12-04T12:34:12;28.77;;;13.35;;
66585;SDS011;53444;45.822;16.092;2023-12-04T12:36:40;31.33;;;12.88;;
66585;SDS011;53444;45.822;16.092;2023-12-04T12:39:07;28.30;;;12.30;;
66585;SDS011;53444;45.822;16.092;2023-12-04T12:41:34;23.27;;;11.77;;
66585;SDS011;53444;45.822;16.092;2023-12-04T12:44:00;26.65;;;11.68;;
66585;SDS011;53444;45.822;16.092;2023-12-04T12:46:30;26.40;;;12.48;;
66585;SDS011;53444;45.822;16.092;2023-12-04T12:48:57;32.67;;;13.60;;
66585;SDS011;53444;45.822;16.092;2023-12-04T12:51:23;34.83;;;14.80;;
66585;SDS011;53444;45.822;16.092;2023-12-04T12:53:50;36.77;;;14.97;;
66585;SDS011;53444;45.822;16.092;2023-12-04T12:56:17;43.55;;;21.25;;
66585;SDS011;53444;45.822;16.092;2023-12-04T12:58:44;36.15;;;15.85;;
66585;SDS011;53444;45.822;16.092;2023-12-04T13:01:11;35.78;;;16.25;;
66585;SDS011;53444;45.822;16.092;2023-12-04T13:03:40;43.05;;;16.10;;
66585;SDS011;53444;45.822;16.092;2023-12-04T13:06:11;31.80;;;12.07;;
66585;SDS011;53444;45.822;16.092;2023-12-04T13:08:38;21.50;;;10.30;;
66585;SDS011;53444;45.822;16.092;2023-12-04T13:11:05;22.30;;;11.38;;
66585;SDS011;53444;45.822;16.092;2023-12-04T13:13:32;28.23;;;13.35;;
66585;SDS011;53444;45.822;16.092;2023-12-04T13:15:58;51.22;;;21.63;;
66585;SDS011;53444;45.822;16.092;2023-12-04T13:18:25;56.47;;;21.47;;
66585;SDS011;53444;45.822;16.092;2023-12-04T13:20:53;48.60;;;22.60;;
66585;SDS011;53444;45.822;16.092;2023-12-04T13:23:21;53.97;;;23.60;;
66585;SDS011;53444;45.822;16.092;2023-12-04T13:25:49;42.50;;;20.23;;
66585;SDS011;53444;45.822;16.092;2023-12-04T13:28:16;48.83;;;21.38;;
66585;SDS011;53444;45.822;16.092;2023-12-04T13:30:42;41.67;;;19.80;;
66585;SDS011;53444;45.822;16.092;2023-12-04T13:33:09;55.13;;;22.77;;
66585;SDS011;53444;45.822;16.092;2023-12-04T13:35:36;50.47;;;21.65;;
66585;SDS011;53444;45.822;16.092;2023-12-04T13:38:04;56.03;;;24.20;;
66585;SDS011;53444;45.822;16.092;2023-12-04T13:40:38;43.78;;;20.55;;
66585;SDS011;53444;45.822;16.092;2023-12-04T13:43:04;46.53;;;20.50;;
66585;SDS011;53444;45.822;16.092;2023-12-04T13:46:03;51.55;;;22.05;;
66585;SDS011;53444;45.822;16.092;2023-12-04T13:48:34;56.05;;;24.13;;
66585;SDS011;53444;45.822;16.092;2023-12-04T13:51:05;59.47;;;23.38;;
66585;SDS011;53444;45.822;16.092;2023-12-04T13:53:34;52.10;;;21.88;;
66585;SDS011;53444;45.822;16.092;2023-12-04T13:56:07;43.77;;;19.27;;
66585;SDS011;53444;45.822;16.092;2023-12-04T13:58:50;41.80;;;18.27;;
66585;SDS011;53444;45.822;16.092;2023-12-04T14:01:21;43.45;;;20.20;;
66585;SDS011;53444;45.822;16.092;2023-12-04T14:03:49;41.53;;;16.75;;
66585;SDS011;53444;45.822;16.092;2023-12-04T14:06:17;36.58;;;16.98;;
66585;SDS011;53444;45.822;16.092;2023-12-04T14:08:47;44.23;;;18.43;;
66585;SDS011;53444;45.822;16.092;2023-12-04T14:11:14;35.90;;;16.10;;
66585;SDS011;53444;45.822;16.092;2023-12-04T14:13:41;42.25;;;15.90;;
66585;SDS011;53444;45.822;16.092;2023-12-04T14:16:08;36.85;;;14.50;;